This is the latest recevied weather packets stored in our database for station/object LU8AQL-WX. If no packets are shown the sender has not sent any weather packets the latest 10 day(s).
| Time | Temp. | Humidity | Pressure | Rain* | Wind** | Luminosity | Snow |
|---|---|---|---|---|---|---|---|
| 1787700163 | 12.22° C | 75% | 1015 hPa | 0 mm | - | - | - |
| 1787699562 | 12.78° C | 75% | 1015 hPa | 0 mm | - | - | - |
| 1787698959 | 12.22° C | 76% | 1016 hPa | 0 mm | - | - | - |
| 1787698357 | 12.22° C | 76% | 1016 hPa | 0 mm | - | - | - |
| 1787697752 | 12.22° C | 75% | 1016 hPa | 0 mm | - | - | - |
| 1787697150 | 12.22° C | 75% | 1016 hPa | 0 mm | - | - | - |
| 1787696508 | 12.22° C | 75% | 1015 hPa | 0 mm | - | - | - |
| 1787695907 | 12.22° C | 75% | 1015 hPa | 0 mm | - | - | - |
| 1787695302 | 12.22° C | 74% | 1016 hPa | 0 mm | - | - | - |
| 1787694699 | 12.22° C | 74% | 1016 hPa | 0 mm | - | - | - |
| 1787694090 | 12.22° C | 73% | 1016 hPa | 0 mm | - | - | - |
| 1787693488 | 12.22° C | 73% | 1016 hPa | 0 mm | - | - | - |
| 1787692887 | 11.67° C | 76% | 1015 hPa | 0 mm | - | - | - |
| 1787692286 | 11.67° C | 75% | 1015 hPa | 0 mm | - | - | - |
| 1787691685 | 11.67° C | 73% | 1016 hPa | 0 mm | - | - | - |
| 1787691084 | 12.22° C | 70% | 1016 hPa | 0 mm | - | - | - |
| 1787690483 | 12.22° C | 70% | 1016 hPa | 0 mm | - | - | - |
| 1787689882 | 12.22° C | 71% | 1016 hPa | 0 mm | - | - | - |
| 1787689280 | 12.22° C | 70% | 1016 hPa | 0 mm | - | - | - |
| 1787688679 | 12.78° C | 67% | 1016 hPa | 0 mm | - | - | - |
| 1787688078 | 13.33° C | 65% | 1017 hPa | 0 mm | - | - | - |
| 1787687478 | 13.33° C | 65% | 1017 hPa | 0 mm | - | - | - |
| 1787686877 | 13.33° C | 65% | 1017 hPa | 0 mm | - | - | - |
| 1787686276 | 13.89° C | 64% | 1017 hPa | 0 mm | - | - | - |
| 1787685674 | 13.33° C | 65% | 1017 hPa | 0 mm | - | - | - |
* Rain latest hour (hover to see other rain measurements)
** Current wind speed in m/s (hover to see current wind gust speed)